sensor_id;sensor_type;location;lat;lon;timestamp;P1;durP1;ratioP1;P2;durP2;ratioP2
3997;SDS011;61314;53.444;9.902;2022-11-20T00:01:26;9.57;;;7.70;;
3997;SDS011;61314;53.444;9.902;2022-11-20T00:03:55;11.73;;;8.30;;
3997;SDS011;61314;53.444;9.902;2022-11-20T00:06:24;11.93;;;7.40;;
3997;SDS011;61314;53.444;9.902;2022-11-20T00:08:53;10.95;;;7.72;;
3997;SDS011;61314;53.444;9.902;2022-11-20T00:11:22;13.05;;;8.68;;
3997;SDS011;61314;53.444;9.902;2022-11-20T00:13:50;10.50;;;7.65;;
3997;SDS011;61314;53.444;9.902;2022-11-20T00:16:19;12.55;;;7.03;;
3997;SDS011;61314;53.444;9.902;2022-11-20T00:18:46;9.57;;;6.57;;
3997;SDS011;61314;53.444;9.902;2022-11-20T00:21:18;9.25;;;7.50;;
3997;SDS011;61314;53.444;9.902;2022-11-20T00:23:47;12.25;;;8.00;;
3997;SDS011;61314;53.444;9.902;2022-11-20T00:26:15;9.38;;;7.20;;
3997;SDS011;61314;53.444;9.902;2022-11-20T00:28:43;11.48;;;8.10;;
3997;SDS011;61314;53.444;9.902;2022-11-20T00:31:11;8.77;;;7.38;;
3997;SDS011;61314;53.444;9.902;2022-11-20T00:33:38;11.68;;;7.10;;
3997;SDS011;61314;53.444;9.902;2022-11-20T00:36:06;8.60;;;7.28;;
3997;SDS011;61314;53.444;9.902;2022-11-20T00:38:34;11.50;;;7.70;;
3997;SDS011;61314;53.444;9.902;2022-11-20T00:41:02;8.88;;;6.35;;
3997;SDS011;61314;53.444;9.902;2022-11-20T00:43:29;13.98;;;8.57;;
3997;SDS011;61314;53.444;9.902;2022-11-20T00:45:56;8.52;;;7.60;;
3997;SDS011;61314;53.444;9.902;2022-11-20T00:48:23;11.10;;;7.53;;
3997;SDS011;61314;53.444;9.902;2022-11-20T00:50:50;8.60;;;7.53;;
3997;SDS011;61314;53.444;9.902;2022-11-20T00:53:17;11.15;;;8.25;;
3997;SDS011;61314;53.444;9.902;2022-11-20T00:55:54;9.77;;;7.82;;
3997;SDS011;61314;53.444;9.902;2022-11-20T00:58:22;16.33;;;8.13;;
3997;SDS011;61314;53.444;9.902;2022-11-20T01:00:49;12.30;;;7.90;;
3997;SDS011;61314;53.444;9.902;2022-11-20T01:03:16;10.05;;;7.45;;
3997;SDS011;61314;53.444;9.902;2022-11-20T01:05:51;11.02;;;7.38;;
3997;SDS011;61314;53.444;9.902;2022-11-20T01:08:18;9.25;;;7.55;;
3997;SDS011;61314;53.444;9.902;2022-11-20T01:10:45;11.85;;;7.93;;
3997;SDS011;61314;53.444;9.902;2022-11-20T01:13:12;10.43;;;7.68;;
3997;SDS011;61314;53.444;9.902;2022-11-20T01:16:02;8.88;;;7.15;;
3997;SDS011;61314;53.444;9.902;2022-11-20T01:18:28;11.20;;;8.00;;
3997;SDS011;61314;53.444;9.902;2022-11-20T01:20:59;11.30;;;7.85;;
3997;SDS011;61314;53.444;9.902;2022-11-20T01:23:26;9.95;;;7.57;;
3997;SDS011;61314;53.444;9.902;2022-11-20T01:25:53;12.90;;;7.93;;
3997;SDS011;61314;53.444;9.902;2022-11-20T01:28:20;8.77;;;7.60;;
3997;SDS011;61314;53.444;9.902;2022-11-20T01:30:47;8.70;;;7.90;;
3997;SDS011;61314;53.444;9.902;2022-11-20T01:33:14;9.13;;;7.78;;
3997;SDS011;61314;53.444;9.902;2022-11-20T01:35:41;8.98;;;7.53;;
3997;SDS011;61314;53.444;9.902;2022-11-20T01:38:08;13.00;;;7.75;;
3997;SDS011;61314;53.444;9.902;2022-11-20T01:40:35;11.52;;;7.10;;
3997;SDS011;61314;53.444;9.902;2022-11-20T01:43:18;10.63;;;7.07;;
3997;SDS011;61314;53.444;9.902;2022-11-20T01:48:18;8.20;;;6.15;;
3997;SDS011;61314;53.444;9.902;2022-11-20T01:50:46;9.20;;;7.13;;
3997;SDS011;61314;53.444;9.902;2022-11-20T01:53:14;7.93;;;6.68;;
3997;SDS011;61314;53.444;9.902;2022-11-20T01:55:44;7.05;;;6.35;;
3997;SDS011;61314;53.444;9.902;2022-11-20T01:58:13;8.80;;;7.28;;
3997;SDS011;61314;53.444;9.902;2022-11-20T02:00:40;13.75;;;6.43;;
3997;SDS011;61314;53.444;9.902;2022-11-20T02:03:09;9.77;;;7.00;;
3997;SDS011;61314;53.444;9.902;2022-11-20T02:05:39;7.90;;;7.10;;
3997;SDS011;61314;53.444;9.902;2022-11-20T02:08:06;7.18;;;6.30;;
3997;SDS011;61314;53.444;9.902;2022-11-20T02:10:33;9.02;;;6.93;;
3997;SDS011;61314;53.444;9.902;2022-11-20T02:13:00;9.35;;;6.85;;
3997;SDS011;61314;53.444;9.902;2022-11-20T02:15:46;6.32;;;5.72;;
3997;SDS011;61314;53.444;9.902;2022-11-20T02:18:14;12.88;;;7.13;;
3997;SDS011;61314;53.444;9.902;2022-11-20T02:20:43;9.45;;;6.22;;
3997;SDS011;61314;53.444;9.902;2022-11-20T02:23:12;10.20;;;7.30;;
3997;SDS011;61314;53.444;9.902;2022-11-20T02:25:39;9.45;;;6.57;;
3997;SDS011;61314;53.444;9.902;2022-11-20T02:28:07;8.20;;;6.75;;
3997;SDS011;61314;53.444;9.902;2022-11-20T02:30:35;11.88;;;7.78;;
3997;SDS011;61314;53.444;9.902;2022-11-20T02:33:02;12.38;;;6.85;;
3997;SDS011;61314;53.444;9.902;2022-11-20T02:37:56;14.52;;;7.45;;
3997;SDS011;61314;53.444;9.902;2022-11-20T02:40:24;6.70;;;5.63;;
3997;SDS011;61314;53.444;9.902;2022-11-20T02:42:52;10.38;;;6.25;;
3997;SDS011;61314;53.444;9.902;2022-11-20T02:45:19;7.40;;;5.93;;
3997;SDS011;61314;53.444;9.902;2022-11-20T02:47:46;10.77;;;7.05;;
3997;SDS011;61314;53.444;9.902;2022-11-20T02:50:13;6.97;;;5.32;;
3997;SDS011;61314;53.444;9.902;2022-11-20T02:52:40;12.30;;;6.32;;
3997;SDS011;61314;53.444;9.902;2022-11-20T02:55:08;7.45;;;5.72;;
3997;SDS011;61314;53.444;9.902;2022-11-20T02:57:35;7.63;;;6.32;;
3997;SDS011;61314;53.444;9.902;2022-11-20T03:00:02;8.32;;;6.43;;
3997;SDS011;61314;53.444;9.902;2022-11-20T03:02:30;6.35;;;5.75;;
3997;SDS011;61314;53.444;9.902;2022-11-20T03:04:57;7.00;;;5.60;;
3997;SDS011;61314;53.444;9.902;2022-11-20T03:07:24;10.18;;;6.28;;
3997;SDS011;61314;53.444;9.902;2022-11-20T03:09:51;7.65;;;6.07;;
3997;SDS011;61314;53.444;9.902;2022-11-20T03:12:18;9.57;;;6.28;;
3997;SDS011;61314;53.444;9.902;2022-11-20T03:14:45;7.95;;;5.90;;
3997;SDS011;61314;53.444;9.902;2022-11-20T03:17:18;9.98;;;7.18;;
3997;SDS011;61314;53.444;9.902;2022-11-20T03:19:45;7.70;;;5.88;;
3997;SDS011;61314;53.444;9.902;2022-11-20T03:22:12;11.27;;;6.95;;
3997;SDS011;61314;53.444;9.902;2022-11-20T03:24:39;8.75;;;6.70;;
3997;SDS011;61314;53.444;9.902;2022-11-20T03:27:06;8.38;;;6.50;;
3997;SDS011;61314;53.444;9.902;2022-11-20T03:29:33;6.25;;;5.65;;
3997;SDS011;61314;53.444;9.902;2022-11-20T03:32:01;13.55;;;5.68;;
3997;SDS011;61314;53.444;9.902;2022-11-20T03:34:28;7.45;;;5.75;;
3997;SDS011;61314;53.444;9.902;2022-11-20T03:36:55;7.70;;;6.20;;
3997;SDS011;61314;53.444;9.902;2022-11-20T03:39:22;7.57;;;5.97;;
3997;SDS011;61314;53.444;9.902;2022-11-20T03:41:49;6.13;;;5.57;;
3997;SDS011;61314;53.444;9.902;2022-11-20T03:44:16;5.88;;;5.30;;
3997;SDS011;61314;53.444;9.902;2022-11-20T03:46:43;6.25;;;5.13;;
3997;SDS011;61314;53.444;9.902;2022-11-20T03:49:10;6.32;;;5.50;;
3997;SDS011;61314;53.444;9.902;2022-11-20T03:51:37;6.82;;;5.90;;
3997;SDS011;61314;53.444;9.902;2022-11-20T03:54:05;7.15;;;5.75;;
3997;SDS011;61314;53.444;9.902;2022-11-20T03:56:34;10.75;;;6.78;;
3997;SDS011;61314;53.444;9.902;2022-11-20T03:59:01;7.05;;;6.32;;
3997;SDS011;61314;53.444;9.902;2022-11-20T04:01:29;7.25;;;6.10;;
3997;SDS011;61314;53.444;9.902;2022-11-20T04:03:57;8.98;;;5.97;;
3997;SDS011;61314;53.444;9.902;2022-11-20T04:06:25;6.97;;;5.85;;
3997;SDS011;61314;53.444;9.902;2022-11-20T04:08:55;9.48;;;6.35;;
3997;SDS011;61314;53.444;9.902;2022-11-20T04:11:24;7.90;;;6.53;;
3997;SDS011;61314;53.444;9.902;2022-11-20T04:13:52;9.25;;;5.80;;
3997;SDS011;61314;53.444;9.902;2022-11-20T04:16:20;8.93;;;5.97;;
3997;SDS011;61314;53.444;9.902;2022-11-20T04:18:51;9.60;;;6.15;;
3997;SDS011;61314;53.444;9.902;2022-11-20T04:21:18;11.18;;;6.75;;
3997;SDS011;61314;53.444;9.902;2022-11-20T04:23:45;10.15;;;6.10;;
3997;SDS011;61314;53.444;9.902;2022-11-20T04:26:12;8.95;;;6.28;;
3997;SDS011;61314;53.444;9.902;2022-11-20T04:28:39;11.85;;;6.65;;
3997;SDS011;61314;53.444;9.902;2022-11-20T04:31:08;7.32;;;6.13;;
3997;SDS011;61314;53.444;9.902;2022-11-20T04:33:35;9.10;;;6.82;;
3997;SDS011;61314;53.444;9.902;2022-11-20T04:36:06;8.43;;;7.53;;
3997;SDS011;61314;53.444;9.902;2022-11-20T04:38:33;8.23;;;6.95;;
3997;SDS011;61314;53.444;9.902;2022-11-20T04:41:01;7.32;;;6.10;;
3997;SDS011;61314;53.444;9.902;2022-11-20T04:43:29;10.40;;;6.25;;
3997;SDS011;61314;53.444;9.902;2022-11-20T04:45:57;10.80;;;5.93;;
3997;SDS011;61314;53.444;9.902;2022-11-20T04:48:24;9.25;;;7.28;;
3997;SDS011;61314;53.444;9.902;2022-11-20T04:50:52;9.45;;;6.65;;
3997;SDS011;61314;53.444;9.902;2022-11-20T04:53:19;11.38;;;7.53;;
3997;SDS011;61314;53.444;9.902;2022-11-20T04:55:46;9.50;;;6.47;;
3997;SDS011;61314;53.444;9.902;2022-11-20T04:58:14;10.55;;;6.70;;
3997;SDS011;61314;53.444;9.902;2022-11-20T05:00:41;9.00;;;7.00;;
3997;SDS011;61314;53.444;9.902;2022-11-20T05:03:08;11.80;;;6.95;;
3997;SDS011;61314;53.444;9.902;2022-11-20T05:05:35;10.68;;;6.85;;
3997;SDS011;61314;53.444;9.902;2022-11-20T05:08:02;8.23;;;6.95;;
3997;SDS011;61314;53.444;9.902;2022-11-20T05:10:29;14.70;;;7.47;;
3997;SDS011;61314;53.444;9.902;2022-11-20T05:12:57;15.35;;;9.50;;
3997;SDS011;61314;53.444;9.902;2022-11-20T05:15:24;6.95;;;6.28;;
3997;SDS011;61314;53.444;9.902;2022-11-20T05:17:51;8.45;;;7.22;;
3997;SDS011;61314;53.444;9.902;2022-11-20T05:20:18;10.43;;;8.10;;
3997;SDS011;61314;53.444;9.902;2022-11-20T05:22:45;19.92;;;8.05;;
3997;SDS011;61314;53.444;9.902;2022-11-20T05:25:12;12.90;;;8.43;;
3997;SDS011;61314;53.444;9.902;2022-11-20T05:27:39;13.00;;;7.13;;
3997;SDS011;61314;53.444;9.902;2022-11-20T05:30:06;7.97;;;6.97;;
3997;SDS011;61314;53.444;9.902;2022-11-20T05:32:34;9.07;;;7.38;;
3997;SDS011;61314;53.444;9.902;2022-11-20T05:35:01;8.63;;;7.05;;
3997;SDS011;61314;53.444;9.902;2022-11-20T05:37:28;10.10;;;7.40;;
3997;SDS011;61314;53.444;9.902;2022-11-20T05:39:55;8.43;;;7.05;;
3997;SDS011;61314;53.444;9.902;2022-11-20T05:42:21;40.00;;;7.53;;
3997;SDS011;61314;53.444;9.902;2022-11-20T05:44:58;10.77;;;8.23;;
3997;SDS011;61314;53.444;9.902;2022-11-20T05:47:26;10.07;;;7.95;;
3997;SDS011;61314;53.444;9.902;2022-11-20T05:49:53;10.55;;;8.55;;
3997;SDS011;61314;53.444;9.902;2022-11-20T05:52:20;10.98;;;8.48;;
3997;SDS011;61314;53.444;9.902;2022-11-20T05:54:47;13.48;;;8.63;;
3997;SDS011;61314;53.444;9.902;2022-11-20T05:57:14;14.25;;;7.70;;
3997;SDS011;61314;53.444;9.902;2022-11-20T05:59:41;15.43;;;8.18;;
3997;SDS011;61314;53.444;9.902;2022-11-20T06:02:08;15.13;;;8.32;;
3997;SDS011;61314;53.444;9.902;2022-11-20T06:04:35;11.25;;;8.27;;
3997;SDS011;61314;53.444;9.902;2022-11-20T06:07:04;14.10;;;8.43;;
3997;SDS011;61314;53.444;9.902;2022-11-20T06:09:31;9.85;;;8.07;;
3997;SDS011;61314;53.444;9.902;2022-11-20T06:11:58;10.77;;;8.43;;
3997;SDS011;61314;53.444;9.902;2022-11-20T06:14:25;9.90;;;7.65;;
3997;SDS011;61314;53.444;9.902;2022-11-20T06:16:52;11.98;;;8.18;;
3997;SDS011;61314;53.444;9.902;2022-11-20T06:19:19;10.90;;;8.18;;
3997;SDS011;61314;53.444;9.902;2022-11-20T06:21:47;14.63;;;10.43;;
3997;SDS011;61314;53.444;9.902;2022-11-20T06:24:15;10.48;;;7.90;;
3997;SDS011;61314;53.444;9.902;2022-11-20T06:26:43;13.27;;;8.30;;
3997;SDS011;61314;53.444;9.902;2022-11-20T06:29:10;15.88;;;9.23;;
3997;SDS011;61314;53.444;9.902;2022-11-20T06:31:37;11.50;;;9.23;;
3997;SDS011;61314;53.444;9.902;2022-11-20T06:34:05;10.20;;;8.52;;
3997;SDS011;61314;53.444;9.902;2022-11-20T06:36:32;11.90;;;9.63;;
3997;SDS011;61314;53.444;9.902;2022-11-20T06:39:00;12.75;;;9.98;;
3997;SDS011;61314;53.444;9.902;2022-11-20T06:41:27;12.18;;;9.07;;
3997;SDS011;61314;53.444;9.902;2022-11-20T06:43:54;13.45;;;9.90;;
3997;SDS011;61314;53.444;9.902;2022-11-20T06:46:21;13.45;;;11.30;;
3997;SDS011;61314;53.444;9.902;2022-11-20T06:48:48;13.68;;;10.15;;
3997;SDS011;61314;53.444;9.902;2022-11-20T06:51:16;20.25;;;11.40;;
3997;SDS011;61314;53.444;9.902;2022-11-20T06:53:43;15.43;;;11.73;;
3997;SDS011;61314;53.444;9.902;2022-11-20T06:56:10;14.52;;;11.27;;
3997;SDS011;61314;53.444;9.902;2022-11-20T06:58:37;15.75;;;10.85;;
3997;SDS011;61314;53.444;9.902;2022-11-20T07:01:05;16.52;;;11.68;;
3997;SDS011;61314;53.444;9.902;2022-11-20T07:03:33;13.15;;;10.63;;
3997;SDS011;61314;53.444;9.902;2022-11-20T07:06:00;15.10;;;11.77;;
3997;SDS011;61314;53.444;9.902;2022-11-20T07:08:28;18.92;;;11.93;;
3997;SDS011;61314;53.444;9.902;2022-11-20T07:10:59;19.80;;;12.07;;
3997;SDS011;61314;53.444;9.902;2022-11-20T07:13:27;17.25;;;12.18;;
3997;SDS011;61314;53.444;9.902;2022-11-20T07:15:54;17.48;;;11.52;;
3997;SDS011;61314;53.444;9.902;2022-11-20T07:18:21;17.55;;;13.07;;
3997;SDS011;61314;53.444;9.902;2022-11-20T07:20:48;12.85;;;10.27;;
3997;SDS011;61314;53.444;9.902;2022-11-20T07:23:15;13.50;;;10.20;;
3997;SDS011;61314;53.444;9.902;2022-11-20T07:25:42;16.02;;;12.52;;
3997;SDS011;61314;53.444;9.902;2022-11-20T07:28:09;16.30;;;12.23;;
3997;SDS011;61314;53.444;9.902;2022-11-20T07:30:36;17.50;;;12.07;;
3997;SDS011;61314;53.444;9.902;2022-11-20T07:33:03;16.35;;;11.98;;
3997;SDS011;61314;53.444;9.902;2022-11-20T07:35:30;15.02;;;10.30;;
3997;SDS011;61314;53.444;9.902;2022-11-20T07:37:57;19.58;;;11.57;;
3997;SDS011;61314;53.444;9.902;2022-11-20T07:40:25;17.17;;;11.55;;
3997;SDS011;61314;53.444;9.902;2022-11-20T07:42:53;16.02;;;11.32;;
3997;SDS011;61314;53.444;9.902;2022-11-20T07:45:21;14.52;;;11.10;;
3997;SDS011;61314;53.444;9.902;2022-11-20T07:47:48;18.77;;;12.00;;
3997;SDS011;61314;53.444;9.902;2022-11-20T07:50:15;16.85;;;10.60;;
3997;SDS011;61314;53.444;9.902;2022-11-20T07:52:42;18.60;;;12.98;;
3997;SDS011;61314;53.444;9.902;2022-11-20T07:55:10;17.10;;;11.73;;
3997;SDS011;61314;53.444;9.902;2022-11-20T07:57:37;14.65;;;10.80;;
3997;SDS011;61314;53.444;9.902;2022-11-20T08:00:04;15.70;;;11.40;;
3997;SDS011;61314;53.444;9.902;2022-11-20T08:02:33;22.52;;;11.98;;
3997;SDS011;61314;53.444;9.902;2022-11-20T08:05:00;19.92;;;13.05;;
3997;SDS011;61314;53.444;9.902;2022-11-20T08:07:27;18.55;;;11.27;;
3997;SDS011;61314;53.444;9.902;2022-11-20T08:09:54;17.42;;;11.07;;
3997;SDS011;61314;53.444;9.902;2022-11-20T08:12:21;16.48;;;11.95;;
3997;SDS011;61314;53.444;9.902;2022-11-20T08:15:07;14.25;;;10.27;;
3997;SDS011;61314;53.444;9.902;2022-11-20T08:17:38;13.30;;;10.63;;
3997;SDS011;61314;53.444;9.902;2022-11-20T08:20:05;15.13;;;10.40;;
3997;SDS011;61314;53.444;9.902;2022-11-20T08:22:32;16.05;;;10.52;;
3997;SDS011;61314;53.444;9.902;2022-11-20T08:24:59;14.27;;;9.80;;
3997;SDS011;61314;53.444;9.902;2022-11-20T08:27:26;15.02;;;10.95;;
3997;SDS011;61314;53.444;9.902;2022-11-20T08:29:54;18.98;;;11.70;;
3997;SDS011;61314;53.444;9.902;2022-11-20T08:32:21;13.05;;;10.25;;
3997;SDS011;61314;53.444;9.902;2022-11-20T08:34:48;12.93;;;10.15;;
3997;SDS011;61314;53.444;9.902;2022-11-20T08:37:15;10.10;;;8.43;;
3997;SDS011;61314;53.444;9.902;2022-11-20T08:39:42;13.63;;;9.98;;
3997;SDS011;61314;53.444;9.902;2022-11-20T08:42:09;12.70;;;9.43;;
3997;SDS011;61314;53.444;9.902;2022-11-20T08:44:36;15.02;;;10.68;;
3997;SDS011;61314;53.444;9.902;2022-11-20T08:47:03;17.10;;;9.93;;
3997;SDS011;61314;53.444;9.902;2022-11-20T08:49:30;14.70;;;10.85;;
3997;SDS011;61314;53.444;9.902;2022-11-20T08:51:57;18.60;;;10.50;;
3997;SDS011;61314;53.444;9.902;2022-11-20T08:54:24;17.63;;;10.88;;
3997;SDS011;61314;53.444;9.902;2022-11-20T08:56:51;15.35;;;9.57;;
3997;SDS011;61314;53.444;9.902;2022-11-20T08:59:18;16.33;;;9.95;;
3997;SDS011;61314;53.444;9.902;2022-11-20T09:02:05;13.10;;;9.85;;
3997;SDS011;61314;53.444;9.902;2022-11-20T09:04:32;11.65;;;9.93;;
3997;SDS011;61314;53.444;9.902;2022-11-20T09:06:59;9.20;;;8.23;;
3997;SDS011;61314;53.444;9.902;2022-11-20T09:09:27;13.35;;;10.00;;
3997;SDS011;61314;53.444;9.902;2022-11-20T09:11:54;13.05;;;8.93;;
3997;SDS011;61314;53.444;9.902;2022-11-20T09:14:21;13.30;;;8.73;;
3997;SDS011;61314;53.444;9.902;2022-11-20T09:16:50;10.80;;;8.43;;
3997;SDS011;61314;53.444;9.902;2022-11-20T09:19:17;15.38;;;9.52;;
3997;SDS011;61314;53.444;9.902;2022-11-20T09:22:01;14.52;;;10.20;;
3997;SDS011;61314;53.444;9.902;2022-11-20T09:24:28;14.10;;;9.20;;
3997;SDS011;61314;53.444;9.902;2022-11-20T09:26:55;15.70;;;8.57;;
3997;SDS011;61314;53.444;9.902;2022-11-20T09:29:22;11.32;;;8.77;;
3997;SDS011;61314;53.444;9.902;2022-11-20T09:31:49;12.18;;;8.23;;
3997;SDS011;61314;53.444;9.902;2022-11-20T09:34:16;11.48;;;8.85;;
3997;SDS011;61314;53.444;9.902;2022-11-20T09:36:43;11.38;;;8.55;;
3997;SDS011;61314;53.444;9.902;2022-11-20T09:39:11;13.38;;;9.15;;
3997;SDS011;61314;53.444;9.902;2022-11-20T09:42:13;11.00;;;8.98;;
3997;SDS011;61314;53.444;9.902;2022-11-20T09:45:16;13.63;;;9.75;;
3997;SDS011;61314;53.444;9.902;2022-11-20T09:47:41;10.52;;;8.02;;
3997;SDS011;61314;53.444;9.902;2022-11-20T09:50:55;16.67;;;9.35;;
3997;SDS011;61314;53.444;9.902;2022-11-20T09:55:29;15.05;;;9.88;;
3997;SDS011;61314;53.444;9.902;2022-11-20T09:57:57;14.82;;;10.90;;
3997;SDS011;61314;53.444;9.902;2022-11-20T10:00:25;10.07;;;8.75;;
3997;SDS011;61314;53.444;9.902;2022-11-20T10:08:07;12.75;;;9.23;;
3997;SDS011;61314;53.444;9.902;2022-11-20T10:10:42;10.95;;;8.95;;
3997;SDS011;61314;53.444;9.902;2022-11-20T10:15:42;10.55;;;9.45;;
3997;SDS011;61314;53.444;9.902;2022-11-20T10:23:43;9.38;;;8.27;;
3997;SDS011;61314;53.444;9.902;2022-11-20T10:31:31;11.13;;;8.77;;
3997;SDS011;61314;53.444;9.902;2022-11-20T10:34:00;16.13;;;8.50;;
3997;SDS011;61314;53.444;9.902;2022-11-20T10:36:43;10.52;;;7.20;;
3997;SDS011;61314;53.444;9.902;2022-11-20T10:39:18;8.50;;;7.22;;
3997;SDS011;61314;53.444;9.902;2022-11-20T10:41:49;10.50;;;7.65;;
3997;SDS011;61314;53.444;9.902;2022-11-20T10:44:19;9.57;;;6.85;;
3997;SDS011;61314;53.444;9.902;2022-11-20T10:47:05;8.80;;;7.63;;
3997;SDS011;61314;53.444;9.902;2022-11-20T10:49:36;9.70;;;6.78;;
3997;SDS011;61314;53.444;9.902;2022-11-20T10:57:02;9.18;;;6.95;;
3997;SDS011;61314;53.444;9.902;2022-11-20T10:59:35;6.53;;;5.93;;
3997;SDS011;61314;53.444;9.902;2022-11-20T11:02:14;7.43;;;6.68;;
3997;SDS011;61314;53.444;9.902;2022-11-20T11:04:51;7.15;;;6.25;;
3997;SDS011;61314;53.444;9.902;2022-11-20T11:07:21;9.95;;;6.22;;
3997;SDS011;61314;53.444;9.902;2022-11-20T11:09:50;6.45;;;5.68;;
3997;SDS011;61314;53.444;9.902;2022-11-20T11:12:17;5.85;;;5.28;;
3997;SDS011;61314;53.444;9.902;2022-11-20T11:14:46;6.10;;;5.60;;
3997;SDS011;61314;53.444;9.902;2022-11-20T11:17:27;6.47;;;5.85;;
3997;SDS011;61314;53.444;9.902;2022-11-20T11:19:59;7.90;;;7.10;;
3997;SDS011;61314;53.444;9.902;2022-11-20T11:22:26;6.32;;;5.72;;
3997;SDS011;61314;53.444;9.902;2022-11-20T11:24:54;7.05;;;5.72;;
3997;SDS011;61314;53.444;9.902;2022-11-20T11:27:21;6.18;;;5.60;;
3997;SDS011;61314;53.444;9.902;2022-11-20T11:29:48;6.28;;;5.68;;
3997;SDS011;61314;53.444;9.902;2022-11-20T11:32:17;6.72;;;6.00;;
3997;SDS011;61314;53.444;9.902;2022-11-20T11:34:57;6.47;;;5.82;;
3997;SDS011;61314;53.444;9.902;2022-11-20T11:37:24;5.40;;;5.00;;
3997;SDS011;61314;53.444;9.902;2022-11-20T11:39:54;5.10;;;4.65;;
3997;SDS011;61314;53.444;9.902;2022-11-20T11:42:42;4.68;;;4.35;;
3997;SDS011;61314;53.444;9.902;2022-11-20T11:45:15;4.85;;;4.45;;
3997;SDS011;61314;53.444;9.902;2022-11-20T11:52:43;5.70;;;5.20;;
3997;SDS011;61314;53.444;9.902;2022-11-20T11:55:14;4.88;;;4.53;;
3997;SDS011;61314;53.444;9.902;2022-11-20T11:57:47;4.57;;;4.18;;
3997;SDS011;61314;53.444;9.902;2022-11-20T12:00:16;4.53;;;4.13;;
3997;SDS011;61314;53.444;9.902;2022-11-20T12:08:02;5.85;;;5.30;;
3997;SDS011;61314;53.444;9.902;2022-11-20T12:13:10;6.03;;;4.30;;
3997;SDS011;61314;53.444;9.902;2022-11-20T12:15:42;5.38;;;4.90;;
3997;SDS011;61314;53.444;9.902;2022-11-20T12:18:14;5.75;;;5.25;;
3997;SDS011;61314;53.444;9.902;2022-11-20T12:20:43;5.13;;;4.72;;
3997;SDS011;61314;53.444;9.902;2022-11-20T12:23:20;5.05;;;4.00;;
3997;SDS011;61314;53.444;9.902;2022-11-20T12:25:48;5.25;;;4.90;;
3997;SDS011;61314;53.444;9.902;2022-11-20T12:31:14;5.55;;;5.15;;
3997;SDS011;61314;53.444;9.902;2022-11-20T12:34:12;5.82;;;5.32;;
3997;SDS011;61314;53.444;9.902;2022-11-20T12:36:38;6.07;;;5.57;;
3997;SDS011;61314;53.444;9.902;2022-11-20T12:39:09;10.77;;;5.80;;
3997;SDS011;61314;53.444;9.902;2022-11-20T12:41:46;6.28;;;5.68;;
3997;SDS011;61314;53.444;9.902;2022-11-20T12:44:41;6.18;;;5.68;;
3997;SDS011;61314;53.444;9.902;2022-11-20T12:47:47;5.97;;;5.47;;
3997;SDS011;61314;53.444;9.902;2022-11-20T12:50:23;5.35;;;4.95;;
3997;SDS011;61314;53.444;9.902;2022-11-20T12:53:00;5.88;;;5.43;;
3997;SDS011;61314;53.444;9.902;2022-11-20T12:55:33;7.50;;;5.40;;
3997;SDS011;61314;53.444;9.902;2022-11-20T12:58:16;6.18;;;4.80;;
3997;SDS011;61314;53.444;9.902;2022-11-20T13:00:56;4.88;;;4.57;;
3997;SDS011;61314;53.444;9.902;2022-11-20T13:05:55;5.88;;;4.47;;
3997;SDS011;61314;53.444;9.902;2022-11-20T13:08:24;4.82;;;4.38;;
3997;SDS011;61314;53.444;9.902;2022-11-20T13:10:56;3.63;;;3.42;;
3997;SDS011;61314;53.444;9.902;2022-11-20T13:13:45;3.45;;;3.25;;
3997;SDS011;61314;53.444;9.902;2022-11-20T13:16:16;3.67;;;3.47;;
3997;SDS011;61314;53.444;9.902;2022-11-20T13:18:45;3.55;;;3.35;;
3997;SDS011;61314;53.444;9.902;2022-11-20T13:21:13;3.60;;;3.30;;
3997;SDS011;61314;53.444;9.902;2022-11-20T13:23:40;4.43;;;4.03;;
3997;SDS011;61314;53.444;9.902;2022-11-20T13:26:20;3.92;;;3.63;;
3997;SDS011;61314;53.444;9.902;2022-11-20T13:29:02;3.95;;;3.65;;
3997;SDS011;61314;53.444;9.902;2022-11-20T13:31:32;4.78;;;3.47;;
3997;SDS011;61314;53.444;9.902;2022-11-20T13:34:01;3.80;;;3.50;;
3997;SDS011;61314;53.444;9.902;2022-11-20T13:36:29;6.60;;;3.70;;
3997;SDS011;61314;53.444;9.902;2022-11-20T13:38:57;4.78;;;4.38;;
3997;SDS011;61314;53.444;9.902;2022-11-20T13:43:58;4.35;;;3.67;;
3997;SDS011;61314;53.444;9.902;2022-11-20T13:46:37;4.18;;;3.75;;
3997;SDS011;61314;53.444;9.902;2022-11-20T13:49:08;3.50;;;3.30;;
3997;SDS011;61314;53.444;9.902;2022-11-20T13:51:41;3.75;;;3.45;;
3997;SDS011;61314;53.444;9.902;2022-11-20T13:54:14;4.28;;;3.97;;
3997;SDS011;61314;53.444;9.902;2022-11-20T14:02:00;4.57;;;4.18;;
3997;SDS011;61314;53.444;9.902;2022-11-20T14:04:32;4.57;;;4.25;;
3997;SDS011;61314;53.444;9.902;2022-11-20T14:07:00;4.75;;;3.58;;
3997;SDS011;61314;53.444;9.902;2022-11-20T14:09:31;4.70;;;4.25;;
3997;SDS011;61314;53.444;9.902;2022-11-20T14:11:58;4.43;;;4.13;;
3997;SDS011;61314;53.444;9.902;2022-11-20T14:14:26;5.20;;;4.25;;
3997;SDS011;61314;53.444;9.902;2022-11-20T14:19:33;5.13;;;4.72;;
3997;SDS011;61314;53.444;9.902;2022-11-20T14:22:09;5.28;;;4.60;;
3997;SDS011;61314;53.444;9.902;2022-11-20T14:24:36;5.60;;;4.45;;
3997;SDS011;61314;53.444;9.902;2022-11-20T14:27:03;5.70;;;4.10;;
3997;SDS011;61314;53.444;9.902;2022-11-20T14:29:33;4.15;;;3.75;;
3997;SDS011;61314;53.444;9.902;2022-11-20T14:32:01;4.10;;;3.80;;
3997;SDS011;61314;53.444;9.902;2022-11-20T14:34:30;5.00;;;4.15;;
3997;SDS011;61314;53.444;9.902;2022-11-20T14:37:01;5.93;;;5.00;;
3997;SDS011;61314;53.444;9.902;2022-11-20T14:39:35;5.65;;;5.20;;
3997;SDS011;61314;53.444;9.902;2022-11-20T14:42:10;4.65;;;4.25;;
3997;SDS011;61314;53.444;9.902;2022-11-20T14:44:40;6.03;;;5.45;;
3997;SDS011;61314;53.444;9.902;2022-11-20T14:47:09;5.95;;;5.50;;
3997;SDS011;61314;53.444;9.902;2022-11-20T14:49:37;9.38;;;6.15;;
3997;SDS011;61314;53.444;9.902;2022-11-20T14:52:12;5.50;;;5.07;;
3997;SDS011;61314;53.444;9.902;2022-11-20T14:54:47;7.30;;;6.07;;
3997;SDS011;61314;53.444;9.902;2022-11-20T14:59:47;7.95;;;5.70;;
3997;SDS011;61314;53.444;9.902;2022-11-20T15:02:14;6.35;;;5.80;;
3997;SDS011;61314;53.444;9.902;2022-11-20T15:04:56;6.18;;;5.60;;
3997;SDS011;61314;53.444;9.902;2022-11-20T15:07:33;5.97;;;5.38;;
3997;SDS011;61314;53.444;9.902;2022-11-20T15:12:31;7.03;;;6.03;;
3997;SDS011;61314;53.444;9.902;2022-11-20T15:14:59;8.27;;;6.68;;
3997;SDS011;61314;53.444;9.902;2022-11-20T15:17:27;6.88;;;6.20;;
3997;SDS011;61314;53.444;9.902;2022-11-20T15:19:54;6.28;;;5.78;;
3997;SDS011;61314;53.444;9.902;2022-11-20T15:22:21;5.80;;;5.30;;
3997;SDS011;61314;53.444;9.902;2022-11-20T15:24:48;5.07;;;4.68;;
3997;SDS011;61314;53.444;9.902;2022-11-20T15:27:15;6.15;;;5.60;;
3997;SDS011;61314;53.444;9.902;2022-11-20T15:29:42;6.22;;;5.43;;
3997;SDS011;61314;53.444;9.902;2022-11-20T15:32:09;5.75;;;5.25;;
3997;SDS011;61314;53.444;9.902;2022-11-20T15:34:38;5.70;;;5.20;;
3997;SDS011;61314;53.444;9.902;2022-11-20T15:37:05;6.95;;;5.18;;
3997;SDS011;61314;53.444;9.902;2022-11-20T15:39:32;5.10;;;4.65;;
3997;SDS011;61314;53.444;9.902;2022-11-20T15:41:59;5.95;;;4.88;;
3997;SDS011;61314;53.444;9.902;2022-11-20T15:44:26;7.18;;;5.43;;
3997;SDS011;61314;53.444;9.902;2022-11-20T15:46:53;7.32;;;6.43;;
3997;SDS011;61314;53.444;9.902;2022-11-20T15:49:20;7.93;;;6.32;;
3997;SDS011;61314;53.444;9.902;2022-11-20T15:51:49;6.35;;;5.75;;
3997;SDS011;61314;53.444;9.902;2022-11-20T15:54:19;6.60;;;5.40;;
3997;SDS011;61314;53.444;9.902;2022-11-20T15:56:48;6.22;;;5.63;;
3997;SDS011;61314;53.444;9.902;2022-11-20T15:59:15;8.50;;;5.68;;
3997;SDS011;61314;53.444;9.902;2022-11-20T16:01:42;9.30;;;8.30;;
3997;SDS011;61314;53.444;9.902;2022-11-20T16:04:13;7.45;;;6.78;;
3997;SDS011;61314;53.444;9.902;2022-11-20T16:06:40;7.05;;;6.45;;
3997;SDS011;61314;53.444;9.902;2022-11-20T16:09:08;8.23;;;6.43;;
3997;SDS011;61314;53.444;9.902;2022-11-20T16:11:35;7.15;;;5.63;;